sensor_id;sensor_type;location;lat;lon;timestamp;P1;durP1;ratioP1;P2;durP2;ratioP2
8825;SDS011;4449;50.872;4.714;2023-08-12T00:03:32;7.47;;;5.95;;
8825;SDS011;4449;50.872;4.714;2023-08-12T00:06:00;7.85;;;5.63;;
8825;SDS011;4449;50.872;4.714;2023-08-12T00:08:30;6.50;;;5.72;;
8825;SDS011;4449;50.872;4.714;2023-08-12T00:10:58;8.40;;;6.00;;
8825;SDS011;4449;50.872;4.714;2023-08-12T00:13:26;9.10;;;6.03;;
8825;SDS011;4449;50.872;4.714;2023-08-12T00:15:53;7.43;;;5.65;;
8825;SDS011;4449;50.872;4.714;2023-08-12T00:18:22;7.00;;;5.90;;
8825;SDS011;4449;50.872;4.714;2023-08-12T00:20:51;7.78;;;6.00;;
8825;SDS011;4449;50.872;4.714;2023-08-12T00:23:19;6.77;;;5.90;;
8825;SDS011;4449;50.872;4.714;2023-08-12T00:25:48;7.77;;;5.60;;
8825;SDS011;4449;50.872;4.714;2023-08-12T00:28:17;6.88;;;6.03;;
8825;SDS011;4449;50.872;4.714;2023-08-12T00:30:47;8.95;;;5.95;;
8825;SDS011;4449;50.872;4.714;2023-08-12T00:33:15;6.80;;;6.10;;
8825;SDS011;4449;50.872;4.714;2023-08-12T00:35:43;7.00;;;5.53;;
8825;SDS011;4449;50.872;4.714;2023-08-12T00:38:12;6.63;;;5.70;;
8825;SDS011;4449;50.872;4.714;2023-08-12T00:40:40;6.57;;;5.40;;
8825;SDS011;4449;50.872;4.714;2023-08-12T00:43:08;7.78;;;4.97;;
8825;SDS011;4449;50.872;4.714;2023-08-12T00:45:35;8.30;;;5.63;;
8825;SDS011;4449;50.872;4.714;2023-08-12T00:48:03;5.22;;;4.78;;
8825;SDS011;4449;50.872;4.714;2023-08-12T00:50:32;6.32;;;4.90;;
8825;SDS011;4449;50.872;4.714;2023-08-12T00:52:59;6.60;;;5.30;;
8825;SDS011;4449;50.872;4.714;2023-08-12T00:55:28;6.55;;;5.00;;
8825;SDS011;4449;50.872;4.714;2023-08-12T00:57:56;6.45;;;4.70;;
8825;SDS011;4449;50.872;4.714;2023-08-12T01:00:24;5.45;;;4.93;;
8825;SDS011;4449;50.872;4.714;2023-08-12T01:02:52;5.85;;;4.97;;
8825;SDS011;4449;50.872;4.714;2023-08-12T01:05:21;5.10;;;4.53;;
8825;SDS011;4449;50.872;4.714;2023-08-12T01:07:49;6.53;;;4.88;;
8825;SDS011;4449;50.872;4.714;2023-08-12T01:10:18;5.88;;;4.80;;
8825;SDS011;4449;50.872;4.714;2023-08-12T01:12:49;5.72;;;4.90;;
8825;SDS011;4449;50.872;4.714;2023-08-12T01:15:20;6.80;;;4.93;;
8825;SDS011;4449;50.872;4.714;2023-08-12T01:17:49;7.68;;;5.45;;
8825;SDS011;4449;50.872;4.714;2023-08-12T01:20:18;7.18;;;5.22;;
8825;SDS011;4449;50.872;4.714;2023-08-12T01:22:49;6.45;;;4.90;;
8825;SDS011;4449;50.872;4.714;2023-08-12T01:25:21;6.97;;;5.20;;
8825;SDS011;4449;50.872;4.714;2023-08-12T01:27:49;8.25;;;5.55;;
8825;SDS011;4449;50.872;4.714;2023-08-12T01:30:16;8.43;;;5.75;;
8825;SDS011;4449;50.872;4.714;2023-08-12T01:32:49;6.30;;;5.60;;
8825;SDS011;4449;50.872;4.714;2023-08-12T01:35:21;9.25;;;5.93;;
8825;SDS011;4449;50.872;4.714;2023-08-12T01:37:51;7.63;;;5.70;;
8825;SDS011;4449;50.872;4.714;2023-08-12T01:40:20;8.20;;;6.03;;
8825;SDS011;4449;50.872;4.714;2023-08-12T01:42:48;6.97;;;5.57;;
8825;SDS011;4449;50.872;4.714;2023-08-12T01:45:17;8.40;;;6.30;;
8825;SDS011;4449;50.872;4.714;2023-08-12T01:47:45;7.25;;;6.07;;
8825;SDS011;4449;50.872;4.714;2023-08-12T01:50:15;8.13;;;5.40;;
8825;SDS011;4449;50.872;4.714;2023-08-12T01:52:44;8.40;;;5.40;;
8825;SDS011;4449;50.872;4.714;2023-08-12T01:55:12;6.72;;;5.47;;
8825;SDS011;4449;50.872;4.714;2023-08-12T01:57:41;5.85;;;5.28;;
8825;SDS011;4449;50.872;4.714;2023-08-12T02:00:09;9.63;;;5.93;;
8825;SDS011;4449;50.872;4.714;2023-08-12T02:02:37;7.60;;;5.73;;
8825;SDS011;4449;50.872;4.714;2023-08-12T02:05:05;6.77;;;5.33;;
8825;SDS011;4449;50.872;4.714;2023-08-12T02:07:33;8.63;;;5.78;;
8825;SDS011;4449;50.872;4.714;2023-08-12T02:10:00;8.02;;;6.25;;
8825;SDS011;4449;50.872;4.714;2023-08-12T02:12:28;7.60;;;5.95;;
8825;SDS011;4449;50.872;4.714;2023-08-12T02:14:57;7.13;;;5.80;;
8825;SDS011;4449;50.872;4.714;2023-08-12T02:17:25;7.07;;;5.95;;
8825;SDS011;4449;50.872;4.714;2023-08-12T02:19:53;8.38;;;6.05;;
8825;SDS011;4449;50.872;4.714;2023-08-12T02:22:21;8.07;;;6.13;;
8825;SDS011;4449;50.872;4.714;2023-08-12T02:24:50;7.88;;;6.07;;
8825;SDS011;4449;50.872;4.714;2023-08-12T02:27:17;7.35;;;5.97;;
8825;SDS011;4449;50.872;4.714;2023-08-12T02:29:45;7.68;;;6.20;;
8825;SDS011;4449;50.872;4.714;2023-08-12T02:32:14;8.23;;;5.93;;
8825;SDS011;4449;50.872;4.714;2023-08-12T02:34:42;6.83;;;5.70;;
8825;SDS011;4449;50.872;4.714;2023-08-12T02:37:09;10.80;;;6.00;;
8825;SDS011;4449;50.872;4.714;2023-08-12T02:39:38;9.05;;;5.80;;
8825;SDS011;4449;50.872;4.714;2023-08-12T02:42:06;9.43;;;6.47;;
8825;SDS011;4449;50.872;4.714;2023-08-12T02:44:33;7.80;;;6.15;;
8825;SDS011;4449;50.872;4.714;2023-08-12T02:47:01;8.13;;;6.03;;
8825;SDS011;4449;50.872;4.714;2023-08-12T02:59:20;7.43;;;5.60;;
8825;SDS011;4449;50.872;4.714;2023-08-12T03:01:47;7.47;;;5.33;;
8825;SDS011;4449;50.872;4.714;2023-08-12T03:04:15;7.20;;;5.40;;
8825;SDS011;4449;50.872;4.714;2023-08-12T03:06:43;6.47;;;5.73;;
8825;SDS011;4449;50.872;4.714;2023-08-12T03:09:11;5.97;;;4.93;;
8825;SDS011;4449;50.872;4.714;2023-08-12T03:11:38;7.63;;;5.80;;
8825;SDS011;4449;50.872;4.714;2023-08-12T03:14:06;9.37;;;6.63;;
8825;SDS011;4449;50.872;4.714;2023-08-12T03:16:36;6.23;;;5.53;;
8825;SDS011;4449;50.872;4.714;2023-08-12T03:19:04;11.57;;;5.50;;
8825;SDS011;4449;50.872;4.714;2023-08-12T03:21:31;6.33;;;5.73;;
8825;SDS011;4449;50.872;4.714;2023-08-12T03:23:59;5.73;;;5.17;;
8825;SDS011;4449;50.872;4.714;2023-08-12T03:26:27;11.07;;;6.43;;
8825;SDS011;4449;50.872;4.714;2023-08-12T03:28:55;11.17;;;6.67;;
8825;SDS011;4449;50.872;4.714;2023-08-12T03:31:23;8.83;;;6.00;;
8825;SDS011;4449;50.872;4.714;2023-08-12T03:33:52;8.70;;;6.47;;
8825;SDS011;4449;50.872;4.714;2023-08-12T03:36:19;7.23;;;6.20;;
8825;SDS011;4449;50.872;4.714;2023-08-12T03:38:47;7.57;;;6.27;;
8825;SDS011;4449;50.872;4.714;2023-08-12T03:41:15;8.40;;;6.57;;
8825;SDS011;4449;50.872;4.714;2023-08-12T03:43:43;7.17;;;5.67;;
8825;SDS011;4449;50.872;4.714;2023-08-12T03:46:10;9.33;;;6.47;;
8825;SDS011;4449;50.872;4.714;2023-08-12T03:48:38;9.20;;;5.63;;
8825;SDS011;4449;50.872;4.714;2023-08-12T03:51:07;10.90;;;6.80;;
8825;SDS011;4449;50.872;4.714;2023-08-12T03:53:35;7.07;;;6.17;;
8825;SDS011;4449;50.872;4.714;2023-08-12T03:56:03;9.17;;;6.87;;
8825;SDS011;4449;50.872;4.714;2023-08-12T03:58:30;11.35;;;8.15;;
8825;SDS011;4449;50.872;4.714;2023-08-12T04:00:58;11.33;;;7.87;;
8825;SDS011;4449;50.872;4.714;2023-08-12T04:03:26;10.75;;;7.53;;
8825;SDS011;4449;50.872;4.714;2023-08-12T04:05:54;10.20;;;6.95;;
8825;SDS011;4449;50.872;4.714;2023-08-12T04:08:23;10.50;;;7.03;;
8825;SDS011;4449;50.872;4.714;2023-08-12T04:10:51;9.82;;;7.13;;
8825;SDS011;4449;50.872;4.714;2023-08-12T04:13:19;9.02;;;7.00;;
8825;SDS011;4449;50.872;4.714;2023-08-12T04:15:48;12.07;;;7.13;;
8825;SDS011;4449;50.872;4.714;2023-08-12T04:18:16;7.97;;;7.27;;
8825;SDS011;4449;50.872;4.714;2023-08-12T04:20:44;9.18;;;7.47;;
8825;SDS011;4449;50.872;4.714;2023-08-12T04:23:13;8.10;;;6.85;;
8825;SDS011;4449;50.872;4.714;2023-08-12T04:25:43;8.23;;;7.30;;
8825;SDS011;4449;50.872;4.714;2023-08-12T04:28:11;8.15;;;6.85;;
8825;SDS011;4449;50.872;4.714;2023-08-12T04:30:42;8.35;;;7.40;;
8825;SDS011;4449;50.872;4.714;2023-08-12T04:33:10;8.75;;;7.63;;
8825;SDS011;4449;50.872;4.714;2023-08-12T04:35:38;8.00;;;7.30;;
8825;SDS011;4449;50.872;4.714;2023-08-12T04:38:06;8.55;;;7.70;;
8825;SDS011;4449;50.872;4.714;2023-08-12T04:40:33;10.83;;;7.93;;
8825;SDS011;4449;50.872;4.714;2023-08-12T04:43:03;10.40;;;7.87;;
8825;SDS011;4449;50.872;4.714;2023-08-12T04:45:31;13.10;;;8.20;;
8825;SDS011;4449;50.872;4.714;2023-08-12T04:47:58;10.60;;;8.48;;
8825;SDS011;4449;50.872;4.714;2023-08-12T04:50:29;9.05;;;8.15;;
8825;SDS011;4449;50.872;4.714;2023-08-12T04:52:57;10.50;;;8.07;;
8825;SDS011;4449;50.872;4.714;2023-08-12T04:55:24;10.55;;;8.18;;
8825;SDS011;4449;50.872;4.714;2023-08-12T04:57:52;10.05;;;8.35;;
8825;SDS011;4449;50.872;4.714;2023-08-12T05:00:22;9.43;;;8.45;;
8825;SDS011;4449;50.872;4.714;2023-08-12T05:02:49;9.55;;;8.40;;
8825;SDS011;4449;50.872;4.714;2023-08-12T05:05:17;12.30;;;9.33;;
8825;SDS011;4449;50.872;4.714;2023-08-12T05:07:44;10.07;;;8.82;;
8825;SDS011;4449;50.872;4.714;2023-08-12T05:10:14;9.48;;;8.60;;
8825;SDS011;4449;50.872;4.714;2023-08-12T05:12:42;9.85;;;8.77;;
8825;SDS011;4449;50.872;4.714;2023-08-12T05:15:10;10.65;;;8.95;;
8825;SDS011;4449;50.872;4.714;2023-08-12T05:17:39;9.00;;;8.10;;
8825;SDS011;4449;50.872;4.714;2023-08-12T05:20:07;8.73;;;7.97;;
8825;SDS011;4449;50.872;4.714;2023-08-12T05:22:35;9.38;;;7.57;;
8825;SDS011;4449;50.872;4.714;2023-08-12T05:25:03;7.90;;;7.20;;
8825;SDS011;4449;50.872;4.714;2023-08-12T05:27:31;7.05;;;6.45;;
8825;SDS011;4449;50.872;4.714;2023-08-12T05:29:58;6.82;;;6.20;;
8825;SDS011;4449;50.872;4.714;2023-08-12T05:32:26;7.03;;;5.70;;
8825;SDS011;4449;50.872;4.714;2023-08-12T05:34:55;5.90;;;5.07;;
8825;SDS011;4449;50.872;4.714;2023-08-12T05:49:40;5.88;;;4.90;;
8825;SDS011;4449;50.872;4.714;2023-08-12T05:52:09;5.80;;;4.03;;
8825;SDS011;4449;50.872;4.714;2023-08-12T05:54:37;3.50;;;3.27;;
8825;SDS011;4449;50.872;4.714;2023-08-12T05:57:05;4.73;;;3.80;;
8825;SDS011;4449;50.872;4.714;2023-08-12T05:59:33;3.60;;;3.40;;
8825;SDS011;4449;50.872;4.714;2023-08-12T06:02:00;4.47;;;3.87;;
8825;SDS011;4449;50.872;4.714;2023-08-12T06:04:29;4.50;;;3.70;;
8825;SDS011;4449;50.872;4.714;2023-08-12T06:06:57;3.10;;;2.83;;
8825;SDS011;4449;50.872;4.714;2023-08-12T06:09:26;3.20;;;3.00;;
8825;SDS011;4449;50.872;4.714;2023-08-12T06:11:53;2.57;;;2.47;;
8825;SDS011;4449;50.872;4.714;2023-08-12T06:14:21;2.60;;;2.50;;
8825;SDS011;4449;50.872;4.714;2023-08-12T06:16:49;8.77;;;8.07;;
8825;SDS011;4449;50.872;4.714;2023-08-12T06:19:17;3.08;;;2.88;;
8825;SDS011;4449;50.872;4.714;2023-08-12T06:21:44;2.90;;;2.70;;
8825;SDS011;4449;50.872;4.714;2023-08-12T06:24:12;2.80;;;2.70;;
8825;SDS011;4449;50.872;4.714;2023-08-12T06:26:41;2.90;;;2.70;;
8825;SDS011;4449;50.872;4.714;2023-08-12T06:29:09;3.22;;;2.83;;
8825;SDS011;4449;50.872;4.714;2023-08-12T06:31:36;2.50;;;2.40;;
8825;SDS011;4449;50.872;4.714;2023-08-12T06:34:04;2.40;;;2.30;;
8825;SDS011;4449;50.872;4.714;2023-08-12T06:36:32;2.13;;;2.00;;
8825;SDS011;4449;50.872;4.714;2023-08-12T06:39:00;2.20;;;2.10;;
8825;SDS011;4449;50.872;4.714;2023-08-12T06:41:28;1.80;;;1.70;;
8825;SDS011;4449;50.872;4.714;2023-08-12T06:43:58;1.67;;;1.67;;
8825;SDS011;4449;50.872;4.714;2023-08-12T06:46:26;1.90;;;1.90;;
8825;SDS011;4449;50.872;4.714;2023-08-12T06:48:56;1.70;;;1.60;;
8825;SDS011;4449;50.872;4.714;2023-08-12T06:51:23;1.50;;;1.48;;
8825;SDS011;4449;50.872;4.714;2023-08-12T06:53:51;1.40;;;1.40;;
8825;SDS011;4449;50.872;4.714;2023-08-12T06:56:19;1.35;;;1.27;;
8825;SDS011;4449;50.872;4.714;2023-08-12T06:58:47;1.23;;;1.17;;
8825;SDS011;4449;50.872;4.714;2023-08-12T07:01:16;1.45;;;1.45;;
8825;SDS011;4449;50.872;4.714;2023-08-12T07:03:44;1.55;;;1.30;;
8825;SDS011;4449;50.872;4.714;2023-08-12T07:06:12;1.42;;;1.25;;
8825;SDS011;4449;50.872;4.714;2023-08-12T07:08:39;1.20;;;1.10;;
8825;SDS011;4449;50.872;4.714;2023-08-12T07:11:07;1.63;;;1.30;;
8825;SDS011;4449;50.872;4.714;2023-08-12T07:13:35;1.33;;;1.15;;
8825;SDS011;4449;50.872;4.714;2023-08-12T07:16:03;1.03;;;1.03;;
8825;SDS011;4449;50.872;4.714;2023-08-12T07:18:32;1.27;;;1.20;;
8825;SDS011;4449;50.872;4.714;2023-08-12T07:21:02;1.23;;;1.17;;
8825;SDS011;4449;50.872;4.714;2023-08-12T07:23:30;1.20;;;1.00;;
8825;SDS011;4449;50.872;4.714;2023-08-12T07:25:58;1.35;;;1.10;;
8825;SDS011;4449;50.872;4.714;2023-08-12T07:28:26;1.23;;;1.23;;
8825;SDS011;4449;50.872;4.714;2023-08-12T07:30:54;1.00;;;1.00;;
8825;SDS011;4449;50.872;4.714;2023-08-12T07:33:22;1.10;;;1.10;;
8825;SDS011;4449;50.872;4.714;2023-08-12T07:35:51;0.95;;;0.95;;
8825;SDS011;4449;50.872;4.714;2023-08-12T07:38:19;1.15;;;1.10;;
8825;SDS011;4449;50.872;4.714;2023-08-12T07:40:48;0.90;;;0.90;;
8825;SDS011;4449;50.872;4.714;2023-08-12T07:43:16;1.00;;;1.00;;
8825;SDS011;4449;50.872;4.714;2023-08-12T07:45:43;1.10;;;1.10;;
8825;SDS011;4449;50.872;4.714;2023-08-12T07:48:11;2.55;;;1.13;;
8825;SDS011;4449;50.872;4.714;2023-08-12T07:50:39;1.80;;;1.80;;
8825;SDS011;4449;50.872;4.714;2023-08-12T07:53:08;1.00;;;1.00;;
8825;SDS011;4449;50.872;4.714;2023-08-12T07:55:35;1.10;;;1.10;;
8825;SDS011;4449;50.872;4.714;2023-08-12T07:58:03;1.13;;;1.00;;
8825;SDS011;4449;50.872;4.714;2023-08-12T08:00:32;1.10;;;1.10;;
8825;SDS011;4449;50.872;4.714;2023-08-12T08:03:00;1.00;;;1.00;;
8825;SDS011;4449;50.872;4.714;2023-08-12T08:05:28;0.98;;;0.98;;
8825;SDS011;4449;50.872;4.714;2023-08-12T08:07:55;1.00;;;1.00;;
8825;SDS011;4449;50.872;4.714;2023-08-12T08:10:25;2.50;;;2.30;;
8825;SDS011;4449;50.872;4.714;2023-08-12T08:12:53;2.60;;;2.50;;
8825;SDS011;4449;50.872;4.714;2023-08-12T08:15:20;2.90;;;2.80;;
8825;SDS011;4449;50.872;4.714;2023-08-12T08:17:49;3.63;;;3.33;;
8825;SDS011;4449;50.872;4.714;2023-08-12T08:20:17;3.77;;;3.57;;
8825;SDS011;4449;50.872;4.714;2023-08-12T08:22:45;4.30;;;4.00;;
8825;SDS011;4449;50.872;4.714;2023-08-12T08:25:12;3.90;;;3.60;;
8825;SDS011;4449;50.872;4.714;2023-08-12T08:27:41;3.05;;;2.95;;
8825;SDS011;4449;50.872;4.714;2023-08-12T08:30:09;3.38;;;3.17;;
8825;SDS011;4449;50.872;4.714;2023-08-12T08:32:37;2.85;;;2.65;;
8825;SDS011;4449;50.872;4.714;2023-08-12T08:35:05;3.00;;;2.85;;
8825;SDS011;4449;50.872;4.714;2023-08-12T08:37:33;2.60;;;2.50;;
8825;SDS011;4449;50.872;4.714;2023-08-12T08:40:01;2.72;;;2.63;;
8825;SDS011;4449;50.872;4.714;2023-08-12T08:42:29;2.70;;;2.60;;
8825;SDS011;4449;50.872;4.714;2023-08-12T08:44:58;3.30;;;3.10;;
8825;SDS011;4449;50.872;4.714;2023-08-12T08:47:28;3.50;;;3.40;;
8825;SDS011;4449;50.872;4.714;2023-08-12T08:49:56;3.78;;;3.58;;
8825;SDS011;4449;50.872;4.714;2023-08-12T08:52:24;4.88;;;4.00;;
8825;SDS011;4449;50.872;4.714;2023-08-12T08:54:52;3.97;;;3.78;;
8825;SDS011;4449;50.872;4.714;2023-08-12T08:57:19;4.03;;;3.72;;
8825;SDS011;4449;50.872;4.714;2023-08-12T08:59:47;3.35;;;3.15;;
8825;SDS011;4449;50.872;4.714;2023-08-12T09:02:17;3.33;;;3.20;;
8825;SDS011;4449;50.872;4.714;2023-08-12T09:04:45;3.63;;;3.33;;
8825;SDS011;4449;50.872;4.714;2023-08-12T09:07:13;3.40;;;3.30;;
8825;SDS011;4449;50.872;4.714;2023-08-12T09:09:41;3.65;;;3.45;;
8825;SDS011;4449;50.872;4.714;2023-08-12T09:12:13;4.28;;;4.00;;
8825;SDS011;4449;50.872;4.714;2023-08-12T09:14:42;4.10;;;3.90;;
8825;SDS011;4449;50.872;4.714;2023-08-12T09:17:10;4.00;;;3.80;;
8825;SDS011;4449;50.872;4.714;2023-08-12T09:19:39;3.70;;;3.50;;
8825;SDS011;4449;50.872;4.714;2023-08-12T09:34:34;4.20;;;3.80;;
8825;SDS011;4449;50.872;4.714;2023-08-12T09:37:02;4.00;;;3.75;;
8825;SDS011;4449;50.872;4.714;2023-08-12T09:39:30;4.22;;;3.92;;
8825;SDS011;4449;50.872;4.714;2023-08-12T09:41:58;3.97;;;3.70;;
8825;SDS011;4449;50.872;4.714;2023-08-12T09:44:26;3.80;;;3.60;;
8825;SDS011;4449;50.872;4.714;2023-08-12T09:46:57;4.10;;;3.63;;
8825;SDS011;4449;50.872;4.714;2023-08-12T09:49:25;4.00;;;3.80;;
8825;SDS011;4449;50.872;4.714;2023-08-12T09:51:54;3.92;;;3.63;;
8825;SDS011;4449;50.872;4.714;2023-08-12T09:54:22;4.32;;;3.92;;
8825;SDS011;4449;50.872;4.714;2023-08-12T09:56:54;2.92;;;2.72;;
8825;SDS011;4449;50.872;4.714;2023-08-12T09:59:24;2.45;;;2.25;;
8825;SDS011;4449;50.872;4.714;2023-08-12T10:01:52;2.53;;;2.43;;
8825;SDS011;4449;50.872;4.714;2023-08-12T10:04:22;2.40;;;2.30;;
8825;SDS011;4449;50.872;4.714;2023-08-12T10:06:50;2.53;;;2.42;;
8825;SDS011;4449;50.872;4.714;2023-08-12T10:09:19;2.80;;;2.60;;
8825;SDS011;4449;50.872;4.714;2023-08-12T10:11:47;3.08;;;2.88;;
8825;SDS011;4449;50.872;4.714;2023-08-12T10:14:17;2.97;;;2.77;;
8825;SDS011;4449;50.872;4.714;2023-08-12T10:16:45;3.42;;;3.08;;
8825;SDS011;4449;50.872;4.714;2023-08-12T10:19:13;3.10;;;2.80;;
8825;SDS011;4449;50.872;4.714;2023-08-12T10:21:47;3.63;;;2.70;;
8825;SDS011;4449;50.872;4.714;2023-08-12T10:24:15;3.38;;;3.17;;
8825;SDS011;4449;50.872;4.714;2023-08-12T10:26:45;3.10;;;2.90;;
8825;SDS011;4449;50.872;4.714;2023-08-12T10:29:13;2.63;;;2.53;;
8825;SDS011;4449;50.872;4.714;2023-08-12T10:36:40;3.73;;;2.10;;
8825;SDS011;4449;50.872;4.714;2023-08-12T10:39:08;3.13;;;1.90;;
8825;SDS011;4449;50.872;4.714;2023-08-12T10:41:36;4.67;;;1.80;;
8825;SDS011;4449;50.872;4.714;2023-08-12T10:44:06;1.63;;;1.53;;
8825;SDS011;4449;50.872;4.714;2023-08-12T10:46:34;2.47;;;1.67;;
8825;SDS011;4449;50.872;4.714;2023-08-12T10:49:02;2.07;;;1.87;;
8825;SDS011;4449;50.872;4.714;2023-08-12T10:51:40;1.63;;;1.40;;
8825;SDS011;4449;50.872;4.714;2023-08-12T10:54:17;4.40;;;1.57;;
8825;SDS011;4449;50.872;4.714;2023-08-12T10:59:53;1.90;;;1.73;;
8825;SDS011;4449;50.872;4.714;2023-08-12T11:02:25;1.87;;;1.77;;
8825;SDS011;4449;50.872;4.714;2023-08-12T11:04:54;1.70;;;1.60;;
8825;SDS011;4449;50.872;4.714;2023-08-12T11:07:22;4.37;;;1.73;;
8825;SDS011;4449;50.872;4.714;2023-08-12T11:09:56;2.73;;;1.40;;
8825;SDS011;4449;50.872;4.714;2023-08-12T11:12:29;1.60;;;1.47;;
8825;SDS011;4449;50.872;4.714;2023-08-12T11:14:59;2.27;;;1.50;;
8825;SDS011;4449;50.872;4.714;2023-08-12T11:17:32;1.90;;;1.70;;
8825;SDS011;4449;50.872;4.714;2023-08-12T12:19:54;2.80;;;1.70;;
8825;SDS011;4449;50.872;4.714;2023-08-12T12:22:26;2.33;;;1.77;;
8825;SDS011;4449;50.872;4.714;2023-08-12T12:24:54;2.47;;;1.60;;
8825;SDS011;4449;50.872;4.714;2023-08-12T12:27:22;2.63;;;1.60;;
8825;SDS011;4449;50.872;4.714;2023-08-12T12:29:49;2.50;;;1.60;;
8825;SDS011;4449;50.872;4.714;2023-08-12T12:32:17;4.00;;;1.50;;
8825;SDS011;4449;50.872;4.714;2023-08-12T12:34:45;1.65;;;1.55;;
8825;SDS011;4449;50.872;4.714;2023-08-12T12:37:15;1.80;;;1.70;;
8825;SDS011;4449;50.872;4.714;2023-08-12T12:39:42;3.72;;;1.60;;
8825;SDS011;4449;50.872;4.714;2023-08-12T12:42:10;2.83;;;1.70;;
8825;SDS011;4449;50.872;4.714;2023-08-12T12:44:38;2.45;;;1.60;;
8825;SDS011;4449;50.872;4.714;2023-08-12T12:47:05;2.53;;;1.67;;
8825;SDS011;4449;50.872;4.714;2023-08-12T12:49:35;2.45;;;1.58;;
8825;SDS011;4449;50.872;4.714;2023-08-12T12:52:03;2.55;;;1.70;;
8825;SDS011;4449;50.872;4.714;2023-08-12T12:54:32;2.72;;;1.88;;
8825;SDS011;4449;50.872;4.714;2023-08-12T12:57:00;1.75;;;1.65;;
8825;SDS011;4449;50.872;4.714;2023-08-12T12:59:29;2.55;;;2.00;;
8825;SDS011;4449;50.872;4.714;2023-08-12T13:01:57;2.30;;;1.77;;
8825;SDS011;4449;50.872;4.714;2023-08-12T13:04:24;2.60;;;1.73;;
8825;SDS011;4449;50.872;4.714;2023-08-12T13:06:52;3.20;;;2.10;;
8825;SDS011;4449;50.872;4.714;2023-08-12T13:09:19;4.78;;;2.10;;
8825;SDS011;4449;50.872;4.714;2023-08-12T13:11:49;3.08;;;2.03;;
8825;SDS011;4449;50.872;4.714;2023-08-12T13:14:17;3.20;;;2.17;;
8825;SDS011;4449;50.872;4.714;2023-08-12T13:16:46;2.78;;;2.10;;
8825;SDS011;4449;50.872;4.714;2023-08-12T13:19:14;2.37;;;2.17;;
8825;SDS011;4449;50.872;4.714;2023-08-12T13:21:42;3.20;;;2.60;;
8825;SDS011;4449;50.872;4.714;2023-08-12T13:24:09;2.87;;;2.60;;
8825;SDS011;4449;50.872;4.714;2023-08-12T13:29:06;3.00;;;2.33;;
8825;SDS011;4449;50.872;4.714;2023-08-12T13:31:34;3.53;;;2.57;;
8825;SDS011;4449;50.872;4.714;2023-08-12T13:34:02;4.00;;;2.67;;
8825;SDS011;4449;50.872;4.714;2023-08-12T13:36:30;2.17;;;2.10;;
8825;SDS011;4449;50.872;4.714;2023-08-12T13:38:57;2.40;;;2.13;;
8825;SDS011;4449;50.872;4.714;2023-08-12T13:41:25;3.57;;;2.60;;
8825;SDS011;4449;50.872;4.714;2023-08-12T13:43:53;2.13;;;1.93;;
8825;SDS011;4449;50.872;4.714;2023-08-12T13:46:22;7.27;;;2.30;;
8825;SDS011;4449;50.872;4.714;2023-08-12T13:48:50;2.17;;;2.00;;
8825;SDS011;4449;50.872;4.714;2023-08-12T13:51:17;3.73;;;2.23;;
8825;SDS011;4449;50.872;4.714;2023-08-12T13:53:45;2.20;;;2.00;;
8825;SDS011;4449;50.872;4.714;2023-08-12T13:56:13;2.60;;;2.07;;
8825;SDS011;4449;50.872;4.714;2023-08-12T13:58:41;1.97;;;1.70;;
8825;SDS011;4449;50.872;4.714;2023-08-12T14:01:09;1.73;;;1.50;;
8825;SDS011;4449;50.872;4.714;2023-08-12T14:03:38;2.13;;;1.67;;
8825;SDS011;4449;50.872;4.714;2023-08-12T14:06:06;4.17;;;1.77;;
8825;SDS011;4449;50.872;4.714;2023-08-12T14:08:33;2.53;;;1.40;;
8825;SDS011;4449;50.872;4.714;2023-08-12T14:11:02;2.83;;;2.63;;
8825;SDS011;4449;50.872;4.714;2023-08-12T14:13:30;2.73;;;1.70;;
8825;SDS011;4449;50.872;4.714;2023-08-12T14:15:57;1.83;;;1.73;;
8825;SDS011;4449;50.872;4.714;2023-08-12T14:18:25;4.23;;;1.90;;
8825;SDS011;4449;50.872;4.714;2023-08-12T14:20:55;4.57;;;2.00;;
8825;SDS011;4449;50.872;4.714;2023-08-12T14:23:22;2.73;;;1.97;;
8825;SDS011;4449;50.872;4.714;2023-08-12T14:25:50;3.27;;;1.80;;
8825;SDS011;4449;50.872;4.714;2023-08-12T14:28:18;2.73;;;1.93;;
8825;SDS011;4449;50.872;4.714;2023-08-12T14:30:45;3.23;;;1.63;;
8825;SDS011;4449;50.872;4.714;2023-08-12T14:33:13;3.33;;;1.87;;
8825;SDS011;4449;50.872;4.714;2023-08-12T14:35:41;4.30;;;1.73;;
8825;SDS011;4449;50.872;4.714;2023-08-12T14:38:10;2.57;;;1.60;;
8825;SDS011;4449;50.872;4.714;2023-08-12T14:40:39;2.50;;;1.57;;
8825;SDS011;4449;50.872;4.714;2023-08-12T14:43:06;2.97;;;1.80;;
8825;SDS011;4449;50.872;4.714;2023-08-12T14:45:34;1.70;;;1.60;;
8825;SDS011;4449;50.872;4.714;2023-08-12T14:48:02;7.67;;;2.10;;
8825;SDS011;4449;50.872;4.714;2023-08-12T14:50:30;4.57;;;1.83;;
8825;SDS011;4449;50.872;4.714;2023-08-12T14:52:57;3.20;;;1.87;;
8825;SDS011;4449;50.872;4.714;2023-08-12T14:55:27;1.80;;;1.70;;
8825;SDS011;4449;50.872;4.714;2023-08-12T14:57:55;1.70;;;1.60;;
8825;SDS011;4449;50.872;4.714;2023-08-12T15:00:22;1.70;;;1.60;;
8825;SDS011;4449;50.872;4.714;2023-08-12T15:02:50;5.73;;;1.77;;
8825;SDS011;4449;50.872;4.714;2023-08-12T15:05:18;2.90;;;1.73;;
8825;SDS011;4449;50.872;4.714;2023-08-12T15:07:45;2.93;;;1.70;;
8825;SDS011;4449;50.872;4.714;2023-08-12T15:10:13;3.03;;;1.63;;
8825;SDS011;4449;50.872;4.714;2023-08-12T15:12:42;3.40;;;1.77;;
8825;SDS011;4449;50.872;4.714;2023-08-12T15:15:10;1.83;;;1.70;;
8825;SDS011;4449;50.872;4.714;2023-08-12T15:17:38;1.67;;;1.50;;
8825;SDS011;4449;50.872;4.714;2023-08-12T15:20:07;3.37;;;1.60;;
8825;SDS011;4449;50.872;4.714;2023-08-12T15:22:35;3.33;;;1.80;;
8825;SDS011;4449;50.872;4.714;2023-08-12T15:25:03;2.13;;;1.70;;
8825;SDS011;4449;50.872;4.714;2023-08-12T15:27:32;1.50;;;1.30;;
8825;SDS011;4449;50.872;4.714;2023-08-12T15:30:01;2.70;;;1.80;;
8825;SDS011;4449;50.872;4.714;2023-08-12T15:32:29;1.97;;;1.67;;
8825;SDS011;4449;50.872;4.714;2023-08-12T15:50:09;5.00;;;1.80;;
8825;SDS011;4449;50.872;4.714;2023-08-12T15:52:37;5.47;;;1.70;;
8825;SDS011;4449;50.872;4.714;2023-08-12T15:55:05;2.87;;;1.73;;
8825;SDS011;4449;50.872;4.714;2023-08-12T15:57:32;3.97;;;1.87;;
8825;SDS011;4449;50.872;4.714;2023-08-12T16:00:00;2.53;;;1.63;;
8825;SDS011;4449;50.872;4.714;2023-08-12T16:02:30;2.37;;;1.80;;
8825;SDS011;4449;50.872;4.714;2023-08-12T16:04:58;3.00;;;2.20;;
8825;SDS011;4449;50.872;4.714;2023-08-12T16:07:27;5.63;;;1.83;;
8825;SDS011;4449;50.872;4.714;2023-08-12T16:09:55;3.17;;;1.60;;
8825;SDS011;4449;50.872;4.714;2023-08-12T16:12:22;5.53;;;2.00;;
8825;SDS011;4449;50.872;4.714;2023-08-12T16:14:50;2.87;;;1.40;;
8825;SDS011;4449;50.872;4.714;2023-08-12T16:17:18;4.27;;;2.00;;
8825;SDS011;4449;50.872;4.714;2023-08-12T16:19:46;3.27;;;1.77;;
8825;SDS011;4449;50.872;4.714;2023-08-12T16:22:13;4.13;;;2.70;;
8825;SDS011;4449;50.872;4.714;2023-08-12T16:24:42;3.97;;;1.70;;
8825;SDS011;4449;50.872;4.714;2023-08-12T16:27:11;4.97;;;1.93;;
8825;SDS011;4449;50.872;4.714;2023-08-12T16:29:39;2.87;;;2.10;;
8825;SDS011;4449;50.872;4.714;2023-08-12T16:32:06;4.63;;;2.20;;
8825;SDS011;4449;50.872;4.714;2023-08-12T16:34:34;2.60;;;1.90;;
8825;SDS011;4449;50.872;4.714;2023-08-12T16:37:02;2.43;;;1.97;;
8825;SDS011;4449;50.872;4.714;2023-08-12T16:39:30;4.53;;;1.73;;
8825;SDS011;4449;50.872;4.714;2023-08-12T16:41:59;1.67;;;1.60;;
8825;SDS011;4449;50.872;4.714;2023-08-12T16:44:27;3.30;;;2.13;;
8825;SDS011;4449;50.872;4.714;2023-08-12T16:46:54;2.83;;;1.70;;
8825;SDS011;4449;50.872;4.714;2023-08-12T16:49:22;2.10;;;2.00;;
8825;SDS011;4449;50.872;4.714;2023-08-12T16:51:50;4.17;;;2.10;;
8825;SDS011;4449;50.872;4.714;2023-08-12T16:54:18;3.63;;;2.07;;
8825;SDS011;4449;50.872;4.714;2023-08-12T16:56:46;4.37;;;2.27;;
8825;SDS011;4449;50.872;4.714;2023-08-12T16:59:15;2.73;;;1.80;;
8825;SDS011;4449;50.872;4.714;2023-08-12T17:01:43;4.10;;;2.40;;
8825;SDS011;4449;50.872;4.714;2023-08-12T17:04:12;4.30;;;2.50;;
8825;SDS011;4449;50.872;4.714;2023-08-12T17:06:40;6.33;;;2.50;;
8825;SDS011;4449;50.872;4.714;2023-08-12T17:09:08;1.87;;;1.67;;
8825;SDS011;4449;50.872;4.714;2023-08-12T17:11:36;5.03;;;2.20;;
8825;SDS011;4449;50.872;4.714;2023-08-12T17:14:03;3.93;;;2.30;;
8825;SDS011;4449;50.872;4.714;2023-08-12T17:16:36;3.30;;;2.13;;
8825;SDS011;4449;50.872;4.714;2023-08-12T17:19:03;3.87;;;2.00;;
8825;SDS011;4449;50.872;4.714;2023-08-12T17:21:31;3.10;;;1.87;;
8825;SDS011;4449;50.872;4.714;2023-08-12T17:23:59;3.27;;;1.80;;